Albany, New York
Traffic Map
Current Weather Conditions
Albany, New York
Overcast Light Rain
Overcast

Feels Like: 5°
Wind Chill: Ceiling: 900
Heat Index: Visibility: 7mi
Dew Point: Wind: 9mph
Humidity: 89% Direction: 20° (NNE)
Pressure: 29.86in Gusts: 0mph
Raw Report DataKALB 231251Z 02008KT 7SM -RA BKN009 OVC020 08/06 A2986 RMK AO2 SLP113 P0010 T00780061
Traffic Incident Summary
Active as of:
Severity:
Category:
InformationThere was an issue retrieving the traffic information for this location. Please try a different location or try again shortly.
Advertisements
Track Severe Weather on mobile